Time;durP1;ratioP1;P1;durP2;ratioP2;P2;SDS_P1;SDS_P2;PMS_P1;PMS_P2;Temp;Humidity;BMP_temperature;BMP_pressure;BME280_temperature;BME280_humidity;BME280_pressure;Samples;Min_cycle;Max_cycle;Signal;HPM_P1;HPM_P2
2023/05/06 00:00:00;;;;;;;21.80;12.90;;;;;;;8.77;100.00;101724.44;5131484;27;20027;-78
2023/05/06 00:02:28;;;;;;;17.15;10.65;;;;;;;8.78;100.00;101722.66;5131614;27;20113;-78
2023/05/06 00:04:54;;;;;;;16.45;10.70;;;;;;;8.77;100.00;101723.59;5129941;28;20213;-80
2023/05/06 00:07:20;;;;;;;20.27;12.50;;;;;;;8.76;100.00;101727.22;5131070;27;20049;-80
2023/05/06 00:09:45;;;;;;;26.35;14.05;;;;;;;8.76;100.00;101722.78;5130830;27;20450;-79
2023/05/06 00:12:11;;;;;;;20.63;12.25;;;;;;;8.76;100.00;101711.28;5132281;28;20035;-75
2023/05/06 00:14:36;;;;;;;22.30;12.65;;;;;;;8.78;100.00;101720.00;5133703;27;20027;-74
2023/05/06 00:17:01;;;;;;;21.92;12.82;;;;;;;8.78;100.00;101723.50;5132426;28;20074;-74
2023/05/06 00:19:27;;;;;;;23.13;13.80;;;;;;;8.82;100.00;101721.47;5132701;28;20485;-74
2023/05/06 00:21:52;;;;;;;31.20;16.50;;;;;;;8.82;100.00;101721.47;5134072;28;20075;-74
2023/05/06 00:24:18;;;;;;;39.65;18.33;;;;;;;8.89;100.00;101720.09;5133661;27;20031;-73
2023/05/06 00:26:43;;;;;;;34.05;17.75;;;;;;;8.93;100.00;101720.75;5132453;28;20070;-73
2023/05/06 00:29:09;;;;;;;30.92;17.10;;;;;;;8.95;100.00;101713.53;5133959;28;20055;-73
2023/05/06 00:31:34;;;;;;;25.67;15.50;;;;;;;8.91;100.00;101710.25;5135261;27;20042;-73
2023/05/06 00:33:59;;;;;;;26.00;14.73;;;;;;;8.89;100.00;101714.78;5137353;27;20030;-74
2023/05/06 00:36:25;;;;;;;32.45;17.55;;;;;;;8.82;100.00;101708.22;5137061;27;20474;-73
2023/05/06 00:38:50;;;;;;;22.02;12.82;;;;;;;8.78;100.00;101712.06;5137263;27;20035;-73
2023/05/06 00:41:15;;;;;;;22.48;13.68;;;;;;;8.72;100.00;101713.31;5137214;27;20062;-73
2023/05/06 00:43:41;;;;;;;20.67;11.45;;;;;;;8.66;100.00;101716.41;5137263;27;20083;-73
2023/05/06 00:46:09;;;;;;;22.63;12.63;;;;;;;8.58;100.00;101697.47;5137130;27;20034;-73
2023/05/06 00:48:35;;;;;;;15.00;10.02;;;;;;;8.52;100.00;101701.41;5136885;27;20113;-72
2023/05/06 00:51:00;;;;;;;18.92;10.95;;;;;;;8.46;100.00;101705.34;5137085;27;20106;-73
2023/05/06 00:53:26;;;;;;;19.08;10.27;;;;;;;8.42;100.00;101701.16;5136758;27;20047;-73
2023/05/06 00:55:51;;;;;;;24.17;12.45;;;;;;;8.39;100.00;101696.06;5137447;27;20038;-74
2023/05/06 00:58:19;;;;;;;26.00;13.73;;;;;;;8.38;100.00;101685.56;5136785;27;20129;-73
2023/05/06 01:00:44;;;;;;;22.92;12.82;;;;;;;8.34;100.00;101682.25;5136896;27;20027;-73
2023/05/06 01:03:09;;;;;;;19.08;11.15;;;;;;;8.29;100.00;101685.22;5136763;27;20080;-74
2023/05/06 01:05:48;;;;;;;26.05;13.82;;;;;;;8.25;100.00;101683.72;5135245;27;20035;-74
2023/05/06 01:08:25;;;;;;;22.95;12.35;;;;;;;8.22;100.00;101688.38;5136852;27;20023;-74
2023/05/06 01:11:04;;;;;;;25.45;13.68;;;;;;;8.17;100.00;101688.69;5136796;27;20121;-73
2023/05/06 01:13:32;;;;;;;23.58;12.20;;;;;;;8.12;100.00;101686.38;5136455;27;20463;-74
2023/05/06 01:16:00;;;;;;;20.73;11.05;;;;;;;8.04;100.00;101686.00;5136884;27;20114;-73
2023/05/06 01:18:27;;;;;;;15.23;9.32;;;;;;;7.97;100.00;101695.31;5135913;27;20031;-73
2023/05/06 01:20:54;;;;;;;19.45;10.70;;;;;;;7.91;100.00;101693.06;5136490;27;20485;-72
2023/05/06 01:23:20;;;;;;;21.70;12.27;;;;;;;7.88;100.00;101693.28;5136363;27;20023;-74
2023/05/06 01:25:45;;;;;;;18.60;10.60;;;;;;;7.86;100.00;101695.19;5136163;27;20023;-73
2023/05/06 01:28:12;;;;;;;17.23;10.57;;;;;;;7.82;100.00;101691.03;5135654;27;20069;-73
2023/05/06 01:30:44;;;;;;;21.30;12.27;;;;;;;7.80;100.00;101692.94;5136335;27;20023;-73
2023/05/06 01:33:44;;;;;;;18.95;10.88;;;;;;;7.77;100.00;101692.16;5136332;27;20023;-74
2023/05/06 01:36:19;;;;;;;20.48;11.60;;;;;;;7.74;100.00;101688.88;5121137;27;20035;-74
2023/05/06 01:39:03;;;;;;;18.60;11.10;;;;;;;7.74;100.00;101699.47;5136271;27;20031;-74
2023/05/06 01:41:32;;;;;;;18.60;10.85;;;;;;;7.72;100.00;101701.38;5135794;27;20031;-73
2023/05/06 01:43:59;;;;;;;20.20;12.02;;;;;;;7.78;100.00;101701.00;5133749;27;20516;-73
2023/05/06 01:46:25;;;;;;;20.63;10.80;;;;;;;7.79;100.00;101694.72;5135976;27;20063;-73
2023/05/06 01:48:56;;;;;;;20.45;11.68;;;;;;;7.79;100.00;101704.47;5135918;27;20030;-74
2023/05/06 01:51:22;;;;;;;19.15;11.57;;;;;;;7.78;100.00;101706.28;5134321;27;20031;-73
2023/05/06 01:53:47;;;;;;;16.70;9.75;;;;;;;7.74;100.00;101710.06;5135823;27;20035;-73
2023/05/06 01:56:12;;;;;;;23.98;12.63;;;;;;;7.67;100.00;101709.59;5135397;27;20096;-73
2023/05/06 01:58:38;;;;;;;22.42;12.88;;;;;;;7.63;100.00;101708.13;5135020;27;20039;-73
2023/05/06 02:01:03;;;;;;;21.55;11.77;;;;;;;7.62;100.00;101709.06;5135735;27;20031;-73
2023/05/06 02:03:28;;;;;;;20.23;11.55;;;;;;;7.58;100.00;101711.06;5135713;27;20469;-73
2023/05/06 02:05:54;;;;;;;19.77;11.98;;;;;;;7.56;100.00;101710.31;5135728;27;20055;-73
2023/05/06 02:08:19;;;;;;;15.82;10.02;;;;;;;7.51;100.00;101714.19;5135505;27;20045;-73
2023/05/06 02:10:45;;;;;;;17.13;11.00;;;;;;;7.48;100.00;101715.25;5135530;27;20027;-73
2023/05/06 02:13:10;;;;;;;20.27;11.93;;;;;;;7.45;100.00;101715.44;5116937;27;20031;-74
2023/05/06 02:15:36;;;;;;;19.55;9.77;;;;;;;7.43;100.00;101722.63;5134401;27;20394;-73
2023/05/06 02:18:01;;;;;;;21.30;11.43;;;;;;;7.40;100.00;101720.16;5135732;27;20031;-73
2023/05/06 02:20:27;;;;;;;18.75;9.75;;;;;;;7.39;100.00;101718.50;5135415;27;20031;-74
2023/05/06 02:22:52;;;;;;;15.85;9.63;;;;;;;7.37;100.00;101725.66;5135372;27;20446;-74
2023/05/06 02:25:18;;;;;;;14.10;8.68;;;;;;;7.34;100.00;101724.06;5135753;27;20042;-73
2023/05/06 02:27:46;;;;;;;13.95;9.32;;;;;;;7.32;100.00;101725.97;5135229;27;20076;-73
2023/05/06 02:30:11;;;;;;;16.38;9.30;;;;;;;7.30;100.00;101729.63;5135054;27;20486;-74
2023/05/06 02:32:37;;;;;;;14.95;9.20;;;;;;;7.28;100.00;101727.09;5135478;27;20035;-73
2023/05/06 02:35:02;;;;;;;11.00;7.50;;;;;;;7.23;100.00;101719.44;5135150;27;20039;-73
2023/05/06 02:37:28;;;;;;;13.45;8.20;;;;;;;7.20;100.00;101726.72;5135217;27;20035;-73
2023/05/06 02:39:53;;;;;;;13.90;7.72;;;;;;;7.16;100.00;101722.56;5135003;27;20066;-74
2023/05/06 02:42:20;;;;;;;13.32;7.55;;;;;;;7.13;100.00;101722.75;5135268;27;20039;-73
2023/05/06 02:44:45;;;;;;;8.57;6.60;;;;;;;7.10;100.00;101723.78;5133650;27;20027;-73
2023/05/06 02:47:10;;;;;;;14.57;7.93;;;;;;;7.09;100.00;101718.59;5135414;27;20076;-73
2023/05/06 02:49:36;;;;;;;12.63;8.55;;;;;;;7.09;100.00;101726.53;5134352;27;20034;-73
2023/05/06 02:52:01;;;;;;;11.63;7.15;;;;;;;7.05;100.00;101723.22;5133353;27;20091;-73
2023/05/06 02:54:27;;;;;;;8.50;6.50;;;;;;;7.04;100.00;101718.88;5134974;27;20482;-73
2023/05/06 02:56:52;;;;;;;13.80;9.27;;;;;;;7.04;100.00;101721.53;5134467;27;20076;-73
2023/05/06 02:59:17;;;;;;;18.58;10.68;;;;;;;7.06;100.00;101731.06;5134625;27;20415;-73
2023/05/06 03:01:43;;;;;;;17.40;8.57;;;;;;;7.10;100.00;101718.50;5134710;27;20032;-73
2023/05/06 03:04:08;;;;;;;11.35;7.47;;;;;;;7.15;100.00;101716.44;5134654;27;20432;-72
2023/05/06 03:06:34;;;;;;;14.55;9.75;;;;;;;7.23;100.00;101718.59;5134601;27;20028;-73
2023/05/06 03:08:59;;;;;;;9.95;6.50;;;;;;;7.32;100.00;101714.53;5134871;27;20031;-73
2023/05/06 03:11:24;;;;;;;9.93;6.93;;;;;;;7.37;100.00;101709.78;5134091;27;20031;-73
2023/05/06 03:13:50;;;;;;;12.07;8.50;;;;;;;7.44;100.00;101716.38;5135040;27;20080;-73
2023/05/06 03:16:16;;;;;;;16.20;9.75;;;;;;;7.46;100.00;101706.53;5135007;27;20023;-73
2023/05/06 03:18:41;;;;;;;12.80;9.10;;;;;;;7.46;100.00;101700.41;5134076;27;20034;-73
2023/05/06 03:21:06;;;;;;;11.82;8.40;;;;;;;7.42;100.00;101710.34;5132906;27;20042;-73
2023/05/06 03:23:32;;;;;;;10.35;7.65;;;;;;;7.37;100.00;101710.63;5134982;27;20038;-73
2023/05/06 03:25:57;;;;;;;9.75;7.80;;;;;;;7.30;100.00;101711.97;5134243;27;20035;-73
2023/05/06 03:28:23;;;;;;;20.30;10.30;;;;;;;7.23;100.00;101716.78;5133495;27;20031;-74
2023/05/06 03:30:48;;;;;;;9.30;6.60;;;;;;;7.14;100.00;101706.78;5132914;27;20463;-73
2023/05/06 03:33:14;;;;;;;11.50;7.88;;;;;;;7.10;100.00;101717.66;5133705;28;20038;-74
2023/05/06 03:35:39;;;;;;;13.38;7.50;;;;;;;7.04;100.00;101705.66;5133851;27;20027;-73
2023/05/06 03:38:05;;;;;;;11.15;7.88;;;;;;;7.02;100.00;101711.03;5133791;27;20027;-73
2023/05/06 03:40:31;;;;;;;19.58;10.73;;;;;;;7.01;100.00;101711.13;5134458;27;20379;-73
2023/05/06 03:42:57;;;;;;;13.45;8.65;;;;;;;6.99;100.00;101713.88;5134182;27;20038;-73
2023/05/06 03:45:22;;;;;;;13.48;9.10;;;;;;;6.98;100.00;101717.44;5134191;28;20032;-73
2023/05/06 03:47:48;;;;;;;13.00;8.27;;;;;;;6.95;100.00;101716.81;5133089;28;20100;-73
2023/05/06 03:50:13;;;;;;;13.50;8.27;;;;;;;6.93;100.00;101718.69;5134016;27;20034;-73
2023/05/06 03:52:39;;;;;;;11.90;7.82;;;;;;;6.94;100.00;101726.53;5133692;27;20074;-74
2023/05/06 03:55:05;;;;;;;13.85;8.48;;;;;;;6.94;100.00;101720.38;5133976;27;20114;-73
2023/05/06 03:57:30;;;;;;;15.18;9.60;;;;;;;6.97;100.00;101721.06;5132507;28;20485;-74
2023/05/06 03:59:56;;;;;;;12.50;8.85;;;;;;;6.99;100.00;101720.97;5132438;28;20031;-73
2023/05/06 04:02:21;;;;;;;11.98;7.50;;;;;;;6.99;100.00;101729.75;5134184;27;20117;-73
2023/05/06 04:04:46;;;;;;;12.43;8.73;;;;;;;6.98;100.00;101721.91;5132798;28;20027;-73
2023/05/06 04:07:12;;;;;;;10.63;7.35;;;;;;;6.93;100.00;101722.19;5135514;27;20045;-73
2023/05/06 04:09:37;;;;;;;13.43;8.20;;;;;;;6.91;100.00;101721.41;5137943;27;20038;-73
2023/05/06 04:12:03;;;;;;;11.23;7.63;;;;;;;6.90;100.00;101727.66;5136643;27;20480;-73
2023/05/06 04:14:28;;;;;;;14.18;7.60;;;;;;;6.91;100.00;101726.72;5137946;27;20046;-74
2023/05/06 04:16:53;;;;;;;10.63;7.03;;;;;;;6.88;100.00;101725.13;5137861;27;20473;-73
2023/05/06 04:19:19;;;;;;;14.07;9.60;;;;;;;6.86;100.00;101724.34;5136772;27;20447;-73
2023/05/06 04:21:45;;;;;;;15.68;9.57;;;;;;;6.87;100.00;101725.22;5137561;27;20148;-73
2023/05/06 04:24:10;;;;;;;16.50;9.98;;;;;;;6.87;100.00;101730.50;5137698;27;20113;-73
2023/05/06 04:26:36;;;;;;;15.07;8.15;;;;;;;6.84;100.00;101731.53;5136442;27;20063;-73
2023/05/06 04:29:01;;;;;;;15.05;8.57;;;;;;;6.86;100.00;101734.09;5137675;27;20038;-73
2023/05/06 04:31:29;;;;;;;17.75;11.13;;;;;;;6.86;100.00;101737.56;5137754;27;20115;-74
2023/05/06 04:33:55;;;;;;;18.45;11.40;;;;;;;6.91;100.00;101732.00;5137908;27;20034;-73
2023/05/06 04:36:20;;;;;;;13.02;8.25;;;;;;;6.92;100.00;101738.16;5138130;27;20416;-72
2023/05/06 04:38:46;;;;;;;11.75;7.65;;;;;;;6.92;100.00;101736.34;5137421;27;20114;-73
2023/05/06 04:41:12;;;;;;;19.27;11.55;;;;;;;6.94;100.00;101737.13;5137810;27;20374;-73
2023/05/06 04:43:38;;;;;;;12.18;7.82;;;;;;;6.95;100.00;101741.47;5137644;27;20417;-73
2023/05/06 04:46:03;;;;;;;13.05;8.32;;;;;;;6.98;100.00;101737.78;5136991;27;20080;-74
2023/05/06 04:48:28;;;;;;;12.93;9.52;;;;;;;7.01;100.00;101742.88;5137138;27;20458;-74
2023/05/06 04:50:54;;;;;;;12.05;7.90;;;;;;;7.04;100.00;101748.00;5137004;27;20031;-74
2023/05/06 04:53:19;;;;;;;15.73;10.05;;;;;;;7.06;100.00;101743.44;5136915;27;20092;-73
2023/05/06 04:55:44;;;;;;;11.77;7.72;;;;;;;7.09;100.00;101745.06;5137071;27;20038;-73
2023/05/06 04:58:10;;;;;;;17.83;11.43;;;;;;;7.15;100.00;101747.31;5135695;27;20080;-74
2023/05/06 05:00:35;;;;;;;18.60;12.07;;;;;;;7.16;100.00;101747.22;5137540;27;20042;-74
2023/05/06 05:03:00;;;;;;;18.08;11.13;;;;;;;7.18;100.00;101749.78;5137536;27;20072;-74
2023/05/06 05:05:27;;;;;;;20.90;12.80;;;;;;;7.21;100.00;101753.09;5137034;27;20411;-74
2023/05/06 05:07:53;;;;;;;24.17;14.07;;;;;;;7.27;100.00;101754.53;5136715;27;20523;-74
2023/05/06 05:10:18;;;;;;;19.67;10.93;;;;;;;7.34;100.00;101761.13;5136706;27;20035;-74
2023/05/06 05:12:45;;;;;;;25.48;14.23;;;;;;;7.43;100.00;101765.00;5136650;27;20027;-74
2023/05/06 05:15:10;;;;;;;29.80;17.73;;;;;;;7.49;100.00;101758.47;5136772;27;20035;-74
2023/05/06 05:17:36;;;;;;;31.02;17.58;;;;;;;7.57;100.00;101756.19;5136643;27;20027;-74
2023/05/06 05:20:02;;;;;;;27.45;16.65;;;;;;;7.67;100.00;101764.41;5136590;27;20027;-74
2023/05/06 05:22:27;;;;;;;28.23;16.85;;;;;;;7.76;100.00;101761.16;5136545;27;20035;-74
2023/05/06 05:24:52;;;;;;;29.67;16.48;;;;;;;7.90;100.00;101768.25;5136719;27;20110;-74
2023/05/06 05:27:18;;;;;;;34.40;17.77;;;;;;;8.06;100.00;101770.72;5136848;27;20034;-74
2023/05/06 05:29:43;;;;;;;34.42;18.92;;;;;;;8.26;100.00;101767.63;5134960;27;20131;-74
2023/05/06 05:32:09;;;;;;;35.67;19.98;;;;;;;8.45;100.00;101766.44;5136393;27;20034;-74
2023/05/06 05:34:34;;;;;;;34.83;19.88;;;;;;;8.64;100.00;101764.25;5136408;27;20486;-74
2023/05/06 05:36:59;;;;;;;46.40;23.38;;;;;;;8.88;100.00;101767.97;5136108;27;20063;-74
2023/05/06 05:39:25;;;;;;;46.15;23.38;;;;;;;9.10;100.00;101770.84;5135972;27;20063;-73
2023/05/06 05:41:50;;;;;;;42.03;23.50;;;;;;;9.32;100.00;101767.53;5136123;27;20031;-74
2023/05/06 05:44:15;;;;;;;43.30;21.90;;;;;;;9.53;100.00;101773.13;5135810;27;20114;-74
2023/05/06 05:46:42;;;;;;;52.28;27.23;;;;;;;9.73;100.00;101770.84;5134767;27;20031;-75
2023/05/06 05:49:07;;;;;;;56.38;28.10;;;;;;;9.91;100.00;101771.31;5136268;27;20039;-73
2023/05/06 05:51:33;;;;;;;66.88;31.00;;;;;;;10.07;100.00;101773.72;5136040;27;20055;-74
2023/05/06 05:53:58;;;;;;;49.33;25.58;;;;;;;10.21;100.00;101773.56;5136125;27;20081;-74
2023/05/06 05:56:24;;;;;;;36.53;21.98;;;;;;;10.31;100.00;101770.19;5135803;27;20027;-74
2023/05/06 05:58:49;;;;;;;40.00;21.80;;;;;;;10.35;100.00;101766.38;5135727;27;20527;-72
2023/05/06 06:01:15;;;;;;;38.55;21.20;;;;;;;10.40;100.00;101769.53;5134174;27;20162;-74
2023/05/06 06:03:41;;;;;;;40.03;22.30;;;;;;;10.45;100.00;101764.75;5135608;27;20035;-75
2023/05/06 06:06:07;;;;;;;39.55;21.92;;;;;;;10.63;100.00;101758.97;5136258;27;20369;-74
2023/05/06 06:08:32;;;;;;;48.40;23.48;;;;;;;10.83;100.00;101760.13;5135649;27;20106;-75
2023/05/06 06:10:58;;;;;;;50.25;25.58;;;;;;;11.06;100.00;101766.31;5135727;27;20447;-74
2023/05/06 06:13:23;;;;;;;47.30;25.65;;;;;;;11.28;100.00;101757.47;5135548;27;20031;-74
2023/05/06 06:15:49;;;;;;;50.10;24.63;;;;;;;11.51;100.00;101761.00;5135433;27;20027;-74
2023/05/06 06:18:14;;;;;;;46.95;25.75;;;;;;;11.71;100.00;101763.88;5135873;27;20079;-74
2023/05/06 06:20:40;;;;;;;32.88;20.23;;;;;;;11.81;100.00;101776.31;5135396;27;20121;-75
2023/05/06 06:23:05;;;;;;;39.00;21.58;;;;;;;11.87;100.00;101774.13;5135261;27;20042;-74
2023/05/06 06:25:30;;;;;;;38.00;21.25;;;;;;;11.91;100.00;101771.09;5134292;27;20419;-74
2023/05/06 06:27:56;;;;;;;35.25;20.52;;;;;;;11.94;100.00;101775.34;5133981;27;20147;-75
2023/05/06 06:30:21;;;;;;;34.88;18.50;;;;;;;11.95;100.00;101785.06;5134511;27;20031;-75
2023/05/06 06:32:51;;;;;;;30.17;19.30;;;;;;;11.94;100.00;101775.34;5135435;27;20035;-76
2023/05/06 06:35:17;;;;;;;31.08;19.38;;;;;;;12.01;100.00;101776.56;5135876;27;20035;-75
2023/05/06 06:37:43;;;;;;;27.65;18.33;;;;;;;12.06;100.00;101777.03;5135820;27;20035;-74
2023/05/06 06:40:09;;;;;;;30.88;20.00;;;;;;;12.16;100.00;101791.28;5133321;27;20543;-74
2023/05/06 06:42:35;;;;;;;39.05;22.10;;;;;;;12.30;100.00;101792.84;5135060;27;20035;-75
2023/05/06 06:45:01;;;;;;;34.33;20.75;;;;;;;12.59;100.00;101788.72;5135549;27;20034;-74
2023/05/06 06:47:26;;;;;;;36.97;21.40;;;;;;;12.79;100.00;101792.34;5135047;27;20447;-75
2023/05/06 06:49:52;;;;;;;36.58;21.30;;;;;;;12.93;100.00;101797.38;5134405;27;20027;-75
2023/05/06 06:52:17;;;;;;;31.05;20.90;;;;;;;12.97;100.00;101788.13;5133199;27;20534;-75
2023/05/06 06:54:42;;;;;;;34.95;20.98;;;;;;;13.10;100.00;101795.09;5134796;27;20027;-75
2023/05/06 06:57:08;;;;;;;34.20;19.52;;;;;;;13.21;100.00;101792.31;5133165;27;20106;-74
2023/05/06 06:59:33;;;;;;;34.40;18.98;;;;;;;13.39;100.00;101797.91;5134571;27;20118;-75
2023/05/06 07:01:59;;;;;;;29.65;18.40;;;;;;;13.62;100.00;101798.56;5134917;27;20468;-75
2023/05/06 07:04:24;;;;;;;34.70;19.65;;;;;;;13.86;100.00;101790.19;5134532;27;20065;-74
2023/05/06 07:06:50;;;;;;;27.08;16.35;;;;;;;14.08;100.00;101798.97;5134492;27;20032;-75
2023/05/06 07:09:16;;;;;;;26.52;15.00;;;;;;;14.27;100.00;101793.63;5134137;27;20028;-73
2023/05/06 07:11:41;;;;;;;23.10;13.55;;;;;;;14.43;100.00;101798.41;5134298;27;20383;-74
2023/05/06 07:14:07;;;;;;;26.13;13.40;;;;;;;14.62;100.00;101788.72;5134174;27;20475;-74
2023/05/06 07:16:33;;;;;;;18.35;10.95;;;;;;;15.02;100.00;101794.84;5134388;27;20463;-74
2023/05/06 07:18:59;;;;;;;24.80;10.38;;;;;;;15.33;100.00;101788.28;5134219;27;20035;-76
2023/05/06 07:21:25;;;;;;;18.33;10.00;;;;;;;15.52;100.00;101792.72;5133224;27;20111;-75
2023/05/06 07:23:51;;;;;;;19.08;10.18;;;;;;;15.85;100.00;101792.25;5134227;27;20039;-74
2023/05/06 07:26:17;;;;;;;21.77;10.45;;;;;;;16.15;100.00;101788.41;5134203;27;20485;-74
2023/05/06 07:28:42;;;;;;;20.98;10.15;;;;;;;16.39;100.00;101786.94;5134658;27;20091;-77
2023/05/06 07:31:08;;;;;;;18.65;9.82;;;;;;;16.64;100.00;101784.47;5135313;27;20040;-77
2023/05/06 07:33:33;;;;;;;17.52;9.45;;;;;;;16.81;100.00;101785.41;5135499;27;20122;-77
2023/05/06 07:35:58;;;;;;;16.88;8.60;;;;;;;16.92;100.00;101788.72;5135348;27;20494;-75
2023/05/06 07:38:24;;;;;;;16.77;8.18;;;;;;;16.99;100.00;101780.03;5138293;28;20480;-79
2023/05/06 07:40:52;;;;;;;19.67;8.43;;;;;;;17.07;100.00;101783.59;5137494;27;20058;-79
2023/05/06 07:43:17;;;;;;;16.50;7.75;;;;;;;17.24;100.00;101794.44;5140736;27;20456;-80
2023/05/06 07:45:43;;;;;;;19.40;8.43;;;;;;;17.42;100.00;101783.59;5139209;27;20035;-78
2023/05/06 07:48:08;;;;;;;17.35;9.00;;;;;;;17.54;100.00;101792.25;5139169;27;20057;-79
2023/05/06 07:50:34;;;;;;;13.70;7.90;;;;;;;17.58;100.00;101788.22;5138562;27;20023;-81
2023/05/06 07:53:00;;;;;;;18.67;8.18;;;;;;;17.64;100.00;101784.88;5138477;27;20551;-78
2023/05/06 07:55:27;;;;;;;21.48;8.10;;;;;;;17.74;100.00;101782.91;5137474;27;20035;-79
2023/05/06 07:57:52;;;;;;;14.25;5.65;;;;;;;17.85;100.00;101786.31;5138206;27;20031;-78
2023/05/06 08:00:18;;;;;;;16.08;6.10;;;;;;;18.12;100.00;101786.06;5137900;27;20035;-82
2023/05/06 08:02:45;;;;;;;12.55;5.20;;;;;;;18.41;100.00;101782.03;5137144;27;20416;-80
2023/05/06 08:05:11;;;;;;;19.98;5.95;;;;;;;18.47;100.00;101781.38;5137597;27;20083;-77
2023/05/06 08:07:36;;;;;;;19.00;7.68;;;;;;;18.43;100.00;101793.47;5137544;27;20023;-78
2023/05/06 08:10:02;;;;;;;12.63;5.70;;;;;;;18.53;100.00;101796.03;5137467;27;20035;-76
2023/05/06 08:12:28;;;;;;;14.27;4.88;;;;;;;18.65;100.00;101804.63;5137469;27;20093;-78
2023/05/06 08:14:54;;;;;;;13.80;4.45;;;;;;;18.66;100.00;101796.34;5137706;27;20420;-80
2023/05/06 08:17:19;;;;;;;15.13;4.40;;;;;;;18.78;100.00;101796.00;5137458;27;20027;-80
2023/05/06 08:19:45;;;;;;;11.10;4.40;;;;;;;18.97;100.00;101800.22;5136281;27;20031;-81
2023/05/06 08:22:10;;;;;;;12.63;5.97;;;;;;;19.03;100.00;101796.84;5136137;27;20038;-78
2023/05/06 08:24:35;;;;;;;15.20;5.75;;;;;;;19.15;100.00;101797.31;5137205;27;20023;-81
2023/05/06 08:27:02;;;;;;;17.00;6.25;;;;;;;19.23;100.00;101793.75;5137125;27;20031;-78
2023/05/06 08:29:27;;;;;;;30.08;7.13;;;;;;;18.90;100.00;101794.69;5137821;27;20034;-81
2023/05/06 08:31:52;;;;;;;15.55;6.68;;;;;;;18.91;100.00;101793.66;5137135;27;20122;-81
2023/05/06 08:34:20;;;;;;;16.90;7.05;;;;;;;18.92;100.00;101792.66;5136950;27;20432;-81
2023/05/06 08:36:47;;;;;;;20.40;6.70;;;;;;;18.85;100.00;101792.50;5137178;27;20038;-80
2023/05/06 08:39:15;;;;;;;16.13;5.18;;;;;;;18.68;100.00;101796.19;5135433;27;20038;-79
2023/05/06 08:41:46;;;;;;;12.35;4.18;;;;;;;18.53;100.00;101793.34;5135488;27;20340;-79
2023/05/06 08:44:16;;;;;;;15.05;3.58;;;;;;;18.64;100.00;101797.53;5136848;27;20023;-81
2023/05/06 08:46:42;;;;;;;18.27;3.50;;;;;;;19.07;100.00;101798.19;5137035;27;20072;-81
2023/05/06 08:49:08;;;;;;;11.07;3.10;;;;;;;19.46;100.00;101793.84;5137073;27;20031;-76
2023/05/06 08:51:34;;;;;;;8.90;3.00;;;;;;;19.92;100.00;101799.41;5136349;27;20031;-79
2023/05/06 08:54:01;;;;;;;10.38;3.42;;;;;;;20.31;95.08;101798.47;5135145;27;20551;-77
2023/05/06 08:56:29;;;;;;;15.77;3.47;;;;;;;20.49;94.26;101797.31;5136418;27;20502;-81
2023/05/06 08:58:57;;;;;;;12.75;3.55;;;;;;;20.43;87.31;101796.19;5136908;27;20114;-78
2023/05/06 09:01:25;;;;;;;11.63;3.15;;;;;;;20.67;93.36;101783.50;5136842;27;20166;-78
2023/05/06 09:03:51;;;;;;;11.48;5.35;;;;;;;21.31;83.02;101796.53;5136527;27;20027;-76
2023/05/06 09:06:16;;;;;;;14.38;5.13;;;;;;;21.83;81.13;101798.25;5136671;27;20471;-77
2023/05/06 09:08:41;;;;;;;11.88;4.68;;;;;;;22.32;73.98;101787.75;5136385;27;20027;-85
2023/05/06 09:11:22;;;;;;;11.05;4.75;;;;;;;22.69;70.12;101791.19;5135069;27;20411;-83
2023/05/06 09:13:48;;;;;;;15.02;6.57;;;;;;;22.81;72.52;101792.34;5136539;27;20031;-77
2023/05/06 09:16:29;;;;;;;14.52;5.38;;;;;;;22.74;72.30;101791.47;5136147;27;20080;-80
2023/05/06 09:18:55;;;;;;;14.48;5.53;;;;;;;23.38;65.78;101784.16;5136006;27;20035;-79
2023/05/06 09:21:21;;;;;;;16.58;5.53;;;;;;;23.81;63.79;101793.94;5134901;27;20031;-76
2023/05/06 09:23:46;;;;;;;15.55;5.93;;;;;;;24.52;59.51;101784.47;5135977;27;20095;-79
2023/05/06 09:26:12;;;;;;;16.75;5.45;;;;;;;24.78;56.39;101775.47;5134707;27;20118;-79
2023/05/06 09:28:37;;;;;;;11.10;5.45;;;;;;;25.10;56.93;101776.47;5136366;27;20027;-80
2023/05/06 09:31:03;;;;;;;9.85;5.50;;;;;;;25.11;56.96;101771.84;5134696;27;20134;-81
2023/05/06 09:33:28;;;;;;;11.48;6.15;;;;;;;24.86;56.05;101777.16;5136242;27;20121;-85
2023/05/06 09:35:54;;;;;;;10.57;5.25;;;;;;;24.00;58.71;101763.28;5136456;27;20455;-80
2023/05/06 09:38:20;;;;;;;14.15;5.75;;;;;;;23.51;62.58;101769.78;5134246;27;20035;-81
2023/05/06 09:40:45;;;;;;;14.88;7.28;;;;;;;23.06;67.03;101781.03;5135803;27;20039;-83
2023/05/06 09:43:11;;;;;;;14.57;7.07;;;;;;;22.58;67.09;101770.88;5135729;27;20039;-77
2023/05/06 09:45:37;;;;;;;11.70;6.45;;;;;;;22.83;68.56;101773.16;5135624;27;20481;-76
2023/05/06 09:48:03;;;;;;;16.90;6.32;;;;;;;23.21;66.70;101765.50;5135946;27;20046;-75
2023/05/06 09:50:28;;;;;;;14.73;6.65;;;;;;;23.42;63.72;101759.13;5135435;27;20488;-78
2023/05/06 09:52:55;;;;;;;15.32;6.20;;;;;;;23.24;69.56;101759.66;5135591;27;20047;-74
2023/05/06 09:55:21;;;;;;;18.08;7.35;;;;;;;23.40;65.38;101761.19;5135590;27;20076;-74
2023/05/06 09:57:48;;;;;;;15.02;6.20;;;;;;;24.03;66.38;101764.75;5135125;27;20102;-75
2023/05/06 10:00:15;;;;;;;12.60;6.45;;;;;;;24.17;64.64;101763.75;5135278;27;20035;-74
2023/05/06 10:02:42;;;;;;;10.98;6.28;;;;;;;23.91;64.74;101751.75;5134954;27;20387;-73
2023/05/06 10:05:09;;;;;;;10.20;4.43;;;;;;;23.38;63.29;101760.56;5133335;27;20027;-81
2023/05/06 10:14:19;;;;;;;9.02;4.03;;;;;;;22.96;72.00;101766.97;5116607;27;20042;-82
2023/05/06 10:16:54;;;;;;;11.27;4.40;;;;;;;23.32;60.87;101755.06;5135845;27;20035;-80
2023/05/06 10:19:25;;;;;;;11.60;4.05;;;;;;;23.50;63.17;101754.56;5135264;27;20028;-81
2023/05/06 10:21:59;;;;;;;9.13;3.45;;;;;;;23.17;60.45;101752.50;5133961;27;20497;-80
2023/05/06 10:24:32;;;;;;;10.63;4.53;;;;;;;22.71;64.01;101752.00;5135778;27;20027;-80
2023/05/06 10:27:02;;;;;;;8.40;4.43;;;;;;;22.99;63.86;101750.28;5134208;27;20433;-80
2023/05/06 10:29:28;;;;;;;13.43;4.82;;;;;;;23.83;64.06;101743.78;5135104;27;20403;-80
2023/05/06 10:31:55;;;;;;;10.63;4.78;;;;;;;24.87;57.85;101744.28;5134985;27;20061;-80
2023/05/06 10:34:23;;;;;;;10.73;4.70;;;;;;;25.35;53.92;101740.41;5134903;27;20070;-80
2023/05/06 10:43:37;;;;;;;;;;;;;;;24.63;54.38;101737.59;5080095;27;20109;-85
2023/05/06 10:46:08;;;;;;;8.68;4.30;;;;;;;24.45;54.41;101733.63;5134580;27;19923;-78
2023/05/06 10:48:36;;;;;;;11.30;4.85;;;;;;;24.66;53.62;101729.00;5134708;27;20363;-78
2023/05/06 10:51:30;;;;;;;10.75;4.63;;;;;;;24.93;53.69;101735.25;5133088;27;20364;-79
2023/05/06 10:54:08;;;;;;;11.68;4.68;;;;;;;25.78;52.72;101731.56;5134002;27;20082;-77
2023/05/06 10:56:41;;;;;;;10.30;4.63;;;;;;;25.93;49.83;101727.69;5134365;27;20043;-77
2023/05/06 10:59:11;;;;;;;10.00;4.13;;;;;;;26.25;49.31;101719.53;5134781;27;20443;-78
2023/05/06 11:01:39;;;;;;;10.57;4.32;;;;;;;26.91;48.54;101727.09;5134163;27;20032;-77
2023/05/06 11:04:13;;;;;;;10.88;4.10;;;;;;;27.27;45.14;101713.63;5133878;27;20031;-79
2023/05/06 11:06:48;;;;;;;11.55;4.28;;;;;;;27.32;46.55;101715.69;5134778;27;20131;-79
2023/05/06 11:09:26;;;;;;;8.32;4.00;;;;;;;27.94;49.22;101710.81;5134707;27;20092;-81
2023/05/06 11:12:05;;;;;;;7.00;4.32;;;;;;;27.60;46.62;101717.84;5134298;27;20030;-80
2023/05/06 11:14:35;;;;;;;10.88;4.25;;;;;;;27.87;43.76;101707.38;5134211;27;20072;-78
2023/05/06 11:17:06;;;;;;;10.32;4.38;;;;;;;28.31;43.67;101710.66;5134267;27;20076;-79
2023/05/06 11:19:38;;;;;;;11.13;4.00;;;;;;;27.95;43.08;101708.94;5133042;27;20080;-80
2023/05/06 11:22:05;;;;;;;10.52;4.03;;;;;;;27.58;40.06;101704.41;5134147;27;20054;-77